createdAt,value
2018-03-29T00:00:14.094Z,5.03
2018-03-29T00:01:14.063Z,5.04
2018-03-29T00:02:14.061Z,5.02
2018-03-29T00:03:14.024Z,5.06
2018-03-29T00:04:14.004Z,5.04
2018-03-29T00:05:13.987Z,5.10
2018-03-29T00:06:13.985Z,5.10
2018-03-29T00:07:14.024Z,5.03
2018-03-29T00:08:13.931Z,5.06
2018-03-29T00:09:13.908Z,5.09
2018-03-29T00:10:13.891Z,5.13
2018-03-29T00:11:13.872Z,5.07
2018-03-29T00:12:13.864Z,5.10
2018-03-29T00:13:13.831Z,5.15
2018-03-29T00:14:13.813Z,5.15
2018-03-29T00:15:13.793Z,5.20
2018-03-29T00:16:13.776Z,5.15
2018-03-29T00:17:13.771Z,5.17
2018-03-29T00:18:13.731Z,5.20
2018-03-29T00:19:13.722Z,5.09
2018-03-29T00:20:13.695Z,5.12
2018-03-29T00:21:13.676Z,5.13
2018-03-29T00:22:13.658Z,5.13
2018-03-29T00:23:13.654Z,5.13
2018-03-29T00:24:13.621Z,5.10
2018-03-29T00:25:13.599Z,5.17
2018-03-29T00:26:13.584Z,5.18
2018-03-29T00:27:13.561Z,5.12
2018-03-29T00:28:13.554Z,5.13
2018-03-29T00:29:13.523Z,5.15
2018-03-29T00:30:13.503Z,5.15
2018-03-29T00:31:13.483Z,5.18
2018-03-29T00:32:13.469Z,5.12
2018-03-29T00:33:13.461Z,5.15
2018-03-29T00:34:13.444Z,5.17
2018-03-29T00:35:13.407Z,5.18
2018-03-29T00:36:13.389Z,5.12
2018-03-29T00:37:13.372Z,5.25
2018-03-29T00:38:13.355Z,5.28
2018-03-29T00:39:13.349Z,5.21
2018-03-29T00:40:13.309Z,5.18
2018-03-29T00:41:13.294Z,5.20
2018-03-29T00:42:13.276Z,5.20
2018-03-29T00:43:13.252Z,5.18
2018-03-29T00:44:13.240Z,5.18
2018-03-29T00:45:13.230Z,5.13
2018-03-29T00:46:13.210Z,5.15
2018-03-29T00:47:13.176Z,5.15
2018-03-29T00:48:13.162Z,5.12
2018-03-29T00:49:13.154Z,5.12
2018-03-29T00:50:13.119Z,5.00
2018-03-29T00:51:13.117Z,5.10
2018-03-29T00:52:13.077Z,5.17
2018-03-29T00:53:13.062Z,5.04
2018-03-29T00:54:13.037Z,5.07
2018-03-29T00:55:13.038Z,5.12
2018-03-29T00:56:13.016Z,5.13
2018-03-29T00:57:12.984Z,5.04
2018-03-29T00:58:12.961Z,5.13
2018-03-29T00:59:12.946Z,5.12
2018-03-29T01:00:12.926Z,5.21
2018-03-29T01:01:12.928Z,5.18
2018-03-29T01:02:12.885Z,5.10
2018-03-29T01:03:12.868Z,5.20
2018-03-29T01:04:12.842Z,5.15
2018-03-29T01:05:12.826Z,5.07
2018-03-29T01:06:12.821Z,5.12
2018-03-29T01:07:12.790Z,5.04
2018-03-29T01:08:12.774Z,5.07
2018-03-29T01:09:12.768Z,5.03
2018-03-29T01:10:12.736Z,5.00
2018-03-29T01:11:12.712Z,5.00
2018-03-29T01:12:12.706Z,5.06
2018-03-29T01:13:12.676Z,5.09
2018-03-29T01:14:12.670Z,5.06
2018-03-29T01:15:12.638Z,5.09
2018-03-29T01:16:12.617Z,5.00
2018-03-29T01:17:12.593Z,5.04
2018-03-29T01:18:12.577Z,5.04
2018-03-29T01:19:12.554Z,5.04
2018-03-29T01:20:12.556Z,5.06
2018-03-29T01:21:12.520Z,5.07
2018-03-29T01:22:12.512Z,5.07
2018-03-29T01:23:12.483Z,5.13
2018-03-29T01:24:12.462Z,5.06
2018-03-29T01:25:12.455Z,5.10
2018-03-29T01:26:12.423Z,5.09
2018-03-29T01:27:12.406Z,5.12
2018-03-29T01:28:12.385Z,5.04
2018-03-29T01:29:12.378Z,5.03
2018-03-29T01:30:12.346Z,5.12
2018-03-29T01:31:12.345Z,5.02
2018-03-29T01:32:12.306Z,5.02
2018-03-29T01:33:12.306Z,5.04
2018-03-29T01:34:12.268Z,5.03
2018-03-29T01:35:12.259Z,5.02
2018-03-29T01:36:12.232Z,4.97
2018-03-29T01:37:12.229Z,4.97
2018-03-29T01:38:12.193Z,5.07
2018-03-29T01:39:12.172Z,5.06
2018-03-29T01:40:12.169Z,5.09
2018-03-29T01:41:12.133Z,5.18
2018-03-29T01:42:12.119Z,5.03
2018-03-29T01:43:12.098Z,5.07
2018-03-29T01:44:12.075Z,5.13
2018-03-29T01:45:12.069Z,5.17
2018-03-29T01:46:12.037Z,5.15
2018-03-29T01:47:12.033Z,5.12
2018-03-29T01:48:11.998Z,5.10
2018-03-29T01:49:11.982Z,5.15
2018-03-29T01:50:11.958Z,5.07
2018-03-29T01:51:11.952Z,5.10
2018-03-29T01:52:11.923Z,5.15
2018-03-29T01:53:11.903Z,5.10
2018-03-29T01:54:11.892Z,5.10
2018-03-29T01:55:11.869Z,5.13
2018-03-29T01:56:11.861Z,5.21
2018-03-29T01:57:11.826Z,5.18
2018-03-29T01:58:11.811Z,5.17
2018-03-29T01:59:11.788Z,5.13
2018-03-29T02:00:11.770Z,5.15
2018-03-29T02:01:11.750Z,5.10
2018-03-29T02:02:11.747Z,5.12
2018-03-29T02:03:11.730Z,5.13
2018-03-29T02:04:11.699Z,5.17
2018-03-29T02:05:11.674Z,5.15
2018-03-29T02:06:11.656Z,5.18
2018-03-29T02:07:11.652Z,5.20
2018-03-29T02:08:11.632Z,5.22
2018-03-29T02:09:11.600Z,5.25
2018-03-29T02:10:11.575Z,5.21
2018-03-29T02:11:11.555Z,5.18
2018-03-29T02:12:11.556Z,5.13
2018-03-29T02:13:11.525Z,5.18
2018-03-29T02:14:11.498Z,5.20
2018-03-29T02:15:11.485Z,5.18
2018-03-29T02:16:11.462Z,5.22
2018-03-29T02:17:11.443Z,5.20
2018-03-29T02:18:11.442Z,5.20
2018-03-29T02:19:11.413Z,5.15
2018-03-29T02:20:11.386Z,5.18
2018-03-29T02:21:11.369Z,5.15
2018-03-29T02:22:11.344Z,5.18
2018-03-29T02:23:11.330Z,5.18
2018-03-29T02:24:11.326Z,5.24
2018-03-29T02:25:11.291Z,5.20
2018-03-29T02:26:11.270Z,5.30
2018-03-29T02:27:11.295Z,5.30
2018-03-29T02:28:11.233Z,5.35
2018-03-29T02:29:11.218Z,5.25
2018-03-29T02:30:11.216Z,5.27
2018-03-29T02:31:11.177Z,5.35
2018-03-29T02:32:11.156Z,5.31
2018-03-29T02:33:11.137Z,5.33
2018-03-29T02:34:11.117Z,5.31
2018-03-29T02:35:11.114Z,5.24
2018-03-29T02:36:11.080Z,5.31
2018-03-29T02:37:11.060Z,5.38
2018-03-29T02:38:11.046Z,5.24
2018-03-29T02:39:11.035Z,5.24
2018-03-29T02:40:11.017Z,5.25
2018-03-29T02:41:11.001Z,5.28
2018-03-29T02:42:10.970Z,5.30
2018-03-29T02:43:10.949Z,5.31
2018-03-29T02:44:10.928Z,5.33
2018-03-29T02:45:10.919Z,5.21
2018-03-29T02:46:10.911Z,5.30
2018-03-29T02:47:10.871Z,5.28
2018-03-29T02:48:10.850Z,5.27
2018-03-29T02:49:10.845Z,5.28
2018-03-29T02:50:10.810Z,5.31
2018-03-29T02:51:10.808Z,5.28
2018-03-29T02:52:10.776Z,5.28
2018-03-29T02:53:10.755Z,5.28
2018-03-29T02:54:10.733Z,5.33
2018-03-29T02:55:10.719Z,5.30
2018-03-29T02:56:10.716Z,5.36
2018-03-29T02:57:10.680Z,5.30
2018-03-29T02:58:10.688Z,5.35
2018-03-29T02:59:10.637Z,5.33
2018-03-29T03:00:10.621Z,5.33
2018-03-29T03:01:10.599Z,5.35
2018-03-29T03:02:10.599Z,5.36
2018-03-29T03:03:10.567Z,5.35
2018-03-29T03:04:10.548Z,5.28
2018-03-29T03:05:10.525Z,5.28
2018-03-29T03:06:10.505Z,5.21
2018-03-29T03:07:10.502Z,5.36
2018-03-29T03:08:10.469Z,5.28
2018-03-29T03:09:10.478Z,5.38
2018-03-29T03:10:10.425Z,5.27
2018-03-29T03:11:10.414Z,5.38
2018-03-29T03:12:10.389Z,5.38
2018-03-29T03:13:10.374Z,5.38
2018-03-29T03:14:10.352Z,5.49
2018-03-29T03:15:10.351Z,5.33
2018-03-29T03:16:10.317Z,5.38
2018-03-29T03:17:10.296Z,5.35
2018-03-29T03:18:10.278Z,5.36
2018-03-29T03:19:10.259Z,5.30
2018-03-29T03:20:10.238Z,5.20
2018-03-29T03:21:10.238Z,5.22
2018-03-29T03:22:10.204Z,5.17
2018-03-29T03:23:10.181Z,5.12
2018-03-29T03:24:10.160Z,5.04
2018-03-29T03:25:10.143Z,5.09
2018-03-29T03:26:10.132Z,5.07
2018-03-29T03:27:10.133Z,5.04
2018-03-29T03:28:10.083Z,5.02
2018-03-29T03:29:10.065Z,5.04
2018-03-29T03:30:10.070Z,5.03
2018-03-29T03:31:10.044Z,5.13
2018-03-29T03:32:10.700Z,5.15
2018-03-29T03:33:09.985Z,5.12
2018-03-29T03:34:09.974Z,5.17
2018-03-29T03:35:09.951Z,5.13
2018-03-29T03:36:09.930Z,5.18
2018-03-29T03:37:09.925Z,5.17
2018-03-29T03:38:09.892Z,5.21
2018-03-29T03:39:09.885Z,5.20
2018-03-29T03:40:09.866Z,5.25
2018-03-29T03:41:09.828Z,5.22
2018-03-29T03:42:09.815Z,5.33
2018-03-29T03:43:09.793Z,5.30
2018-03-29T03:44:09.779Z,5.27
2018-03-29T03:45:09.790Z,5.27
2018-03-29T03:46:09.738Z,5.31
2018-03-29T03:47:09.715Z,5.25
2018-03-29T03:48:09.696Z,5.35
2018-03-29T03:49:09.693Z,5.28
2018-03-29T03:50:09.656Z,5.38
2018-03-29T03:51:09.660Z,5.22
2018-03-29T03:52:09.625Z,5.21
2018-03-29T03:53:09.601Z,5.36
2018-03-29T03:54:09.576Z,5.28
2018-03-29T03:55:09.557Z,5.36
2018-03-29T03:56:09.548Z,5.38
2018-03-29T03:57:09.538Z,5.30
2018-03-29T03:58:09.504Z,5.38
2018-03-29T03:59:09.483Z,5.27
2018-03-29T04:00:09.463Z,5.31
2018-03-29T04:01:09.461Z,5.30
2018-03-29T04:02:09.429Z,5.28
2018-03-29T04:03:09.410Z,5.33
2018-03-29T04:04:09.394Z,5.39
2018-03-29T04:05:09.373Z,5.39
2018-03-29T04:06:09.354Z,5.31
2018-03-29T04:07:09.349Z,5.39
2018-03-29T04:08:09.314Z,5.36
2018-03-29T04:09:09.293Z,5.46
2018-03-29T04:10:09.267Z,5.45
2018-03-29T04:11:09.257Z,5.39
2018-03-29T04:12:09.247Z,5.35
2018-03-29T04:13:09.210Z,5.43
2018-03-29T04:14:09.242Z,5.39
2018-03-29T04:15:09.174Z,5.42
2018-03-29T04:16:09.152Z,5.31
2018-03-29T04:17:09.179Z,5.33
2018-03-29T04:18:09.116Z,5.38
2018-03-29T04:19:09.097Z,5.40
2018-03-29T04:20:09.094Z,5.43
2018-03-29T04:21:09.060Z,5.39
2018-03-29T04:22:09.039Z,5.43
2018-03-29T04:23:09.041Z,5.40
2018-03-29T04:24:09.015Z,5.51
2018-03-29T04:25:08.992Z,5.46
2018-03-29T04:26:09.659Z,5.51
2018-03-29T04:27:08.940Z,5.54
2018-03-29T04:28:08.942Z,5.48
2018-03-29T04:29:08.921Z,5.46
2018-03-29T04:30:08.897Z,5.33
2018-03-29T04:31:08.864Z,5.43
2018-03-29T04:32:08.849Z,5.51
2018-03-29T04:33:08.830Z,5.48
2018-03-29T04:34:08.824Z,5.53
2018-03-29T04:35:08.795Z,5.57
2018-03-29T04:36:08.774Z,5.48
2018-03-29T04:37:08.752Z,5.45
2018-03-29T04:38:08.732Z,5.57
2018-03-29T04:39:08.719Z,5.57
2018-03-29T04:40:08.714Z,5.45
2018-03-29T04:41:08.681Z,5.58
2018-03-29T04:42:08.659Z,5.45
2018-03-29T04:43:08.640Z,5.49
2018-03-29T04:44:08.621Z,5.46
2018-03-29T04:45:08.610Z,5.40
2018-03-29T04:46:08.598Z,5.45
2018-03-29T04:47:08.570Z,5.42
2018-03-29T04:48:08.558Z,5.54
2018-03-29T04:49:08.555Z,5.51
2018-03-29T04:50:08.519Z,5.54
2018-03-29T04:51:08.502Z,5.58
2018-03-29T04:52:08.477Z,5.43
2018-03-29T04:53:08.441Z,5.48
2018-03-29T04:54:08.421Z,5.43
2018-03-29T04:55:08.405Z,5.45
2018-03-29T04:56:08.406Z,5.51
2018-03-29T04:57:08.372Z,5.38
2018-03-29T04:58:08.350Z,5.38
2018-03-29T04:59:08.333Z,5.35
2018-03-29T05:00:08.314Z,5.31
2018-03-29T05:01:08.334Z,5.49
2018-03-29T05:02:08.291Z,5.49
2018-03-29T05:03:08.251Z,5.43
2018-03-29T05:04:08.238Z,5.48
2018-03-29T05:05:08.220Z,5.46
2018-03-29T05:06:08.201Z,5.48
2018-03-29T05:07:08.198Z,5.45
2018-03-29T05:08:08.160Z,5.45
2018-03-29T05:09:08.141Z,5.45
2018-03-29T05:10:08.129Z,5.54
2018-03-29T05:11:08.113Z,5.49
2018-03-29T05:12:08.101Z,5.57
2018-03-29T05:13:29.072Z,5.48
2018-03-29T05:14:08.059Z,5.49
2018-03-29T05:15:08.027Z,5.56
2018-03-29T05:16:08.004Z,5.54
2018-03-29T05:17:07.987Z,5.58
2018-03-29T05:18:07.983Z,5.60
2018-03-29T05:19:07.947Z,5.60
2018-03-29T05:20:07.927Z,5.63
2018-03-29T05:21:07.919Z,5.64
2018-03-29T05:22:07.912Z,5.67
2018-03-29T05:23:07.886Z,5.49
2018-03-29T05:24:07.852Z,5.61
2018-03-29T05:25:07.835Z,5.54
2018-03-29T05:26:07.812Z,5.51
2018-03-29T05:27:07.802Z,5.65
2018-03-29T05:28:07.797Z,5.65
2018-03-29T05:29:07.770Z,5.60
2018-03-29T05:30:07.736Z,5.61
2018-03-29T05:31:07.718Z,5.60
2018-03-29T05:32:07.698Z,5.57
2018-03-29T05:33:07.680Z,5.60
2018-03-29T05:34:07.677Z,5.64
2018-03-29T05:35:07.662Z,5.56
2018-03-29T05:36:07.619Z,5.63
2018-03-29T05:37:07.617Z,5.57
2018-03-29T05:38:07.583Z,5.63
2018-03-29T05:39:07.570Z,5.61
2018-03-29T05:40:07.596Z,5.54
2018-03-29T05:41:07.546Z,5.51
2018-03-29T05:42:07.510Z,5.61
2018-03-29T05:43:07.492Z,5.53
2018-03-29T05:44:07.475Z,5.68
2018-03-29T05:45:07.450Z,5.65
2018-03-29T05:46:07.429Z,5.71
2018-03-29T05:47:07.426Z,5.60
2018-03-29T05:48:07.392Z,5.74
2018-03-29T05:49:07.380Z,5.72
2018-03-29T05:50:07.372Z,5.76
2018-03-29T05:51:07.352Z,5.75
2018-03-29T05:52:07.338Z,5.85
2018-03-29T05:53:07.307Z,5.81
2018-03-29T05:54:07.278Z,5.78
2018-03-29T05:55:07.259Z,5.81
2018-03-29T05:56:07.252Z,5.82
2018-03-29T05:57:07.243Z,5.75
2018-03-29T05:58:07.203Z,5.68
2018-03-29T05:59:07.191Z,5.83
2018-03-29T06:00:07.167Z,5.78
2018-03-29T06:01:07.158Z,5.74
2018-03-29T06:02:07.127Z,5.67
2018-03-29T06:03:07.157Z,5.67
2018-03-29T06:04:07.197Z,5.65
2018-03-29T06:05:07.117Z,5.56
2018-03-29T06:06:07.057Z,5.57
2018-03-29T06:07:07.039Z,5.61
2018-03-29T06:08:07.016Z,5.58
2018-03-29T06:09:07.012Z,5.61
2018-03-29T06:10:06.990Z,5.64
2018-03-29T06:11:06.969Z,5.58
2018-03-29T06:12:06.943Z,5.72
2018-03-29T06:13:06.930Z,5.75
2018-03-29T06:14:07.634Z,5.76
2018-03-29T06:15:06.921Z,5.71
2018-03-29T06:16:06.863Z,5.72
2018-03-29T06:17:06.846Z,5.60
2018-03-29T06:18:06.909Z,5.61
2018-03-29T06:19:06.821Z,5.56
2018-03-29T06:20:06.784Z,5.67
2018-03-29T06:21:06.765Z,5.58
2018-03-29T06:22:06.745Z,5.53
2018-03-29T06:23:06.784Z,5.49
2018-03-29T06:24:06.723Z,5.61
2018-03-29T06:25:06.690Z,5.60
2018-03-29T06:26:06.680Z,5.48
2018-03-29T06:27:06.655Z,5.54
2018-03-29T06:28:06.625Z,5.51
2018-03-29T06:29:06.632Z,5.53
2018-03-29T06:30:06.631Z,5.64
2018-03-29T06:31:06.581Z,5.64
2018-03-29T06:32:06.567Z,5.65
2018-03-29T06:33:06.542Z,5.58
2018-03-29T06:34:06.523Z,5.65
2018-03-29T06:35:06.513Z,5.64
2018-03-29T06:36:06.491Z,5.64
2018-03-29T06:37:06.465Z,5.68
2018-03-29T06:38:06.440Z,5.63
2018-03-29T06:39:06.426Z,5.71
2018-03-29T06:40:06.400Z,5.67
2018-03-29T06:41:06.408Z,5.71
2018-03-29T06:42:06.377Z,5.78
2018-03-29T06:43:06.352Z,5.74
2018-03-29T06:44:06.326Z,5.74
2018-03-29T06:45:06.327Z,5.68
2018-03-29T06:46:06.305Z,5.82
2018-03-29T06:47:06.270Z,5.76
2018-03-29T06:48:06.252Z,5.68
2018-03-29T06:49:06.238Z,5.74
2018-03-29T06:50:06.211Z,5.86
2018-03-29T06:51:06.221Z,5.83
2018-03-29T06:52:06.169Z,5.76
2018-03-29T06:53:06.154Z,5.89
2018-03-29T06:54:06.132Z,5.90
2018-03-29T06:55:06.121Z,5.85
2018-03-29T06:56:06.098Z,5.96
2018-03-29T06:57:06.100Z,5.83
2018-03-29T06:58:06.057Z,5.85
2018-03-29T06:59:06.057Z,5.93
2018-03-29T07:00:06.019Z,5.76
2018-03-29T07:01:06.005Z,5.93
2018-03-29T07:02:06.026Z,5.99
2018-03-29T07:03:05.972Z,5.91
2018-03-29T07:04:06.027Z,6.00
2018-03-29T07:05:05.924Z,5.94
2018-03-29T07:06:05.901Z,5.93
2018-03-29T07:07:05.901Z,5.93
2018-03-29T07:08:05.891Z,6.01
2018-03-29T07:09:05.867Z,5.99
2018-03-29T07:10:05.837Z,6.01
2018-03-29T07:11:05.819Z,6.00
2018-03-29T07:12:05.802Z,6.04
2018-03-29T07:13:05.783Z,6.08
2018-03-29T07:14:05.771Z,6.08
2018-03-29T07:15:05.768Z,6.00
2018-03-29T07:16:05.720Z,6.04
2018-03-29T07:17:05.700Z,6.06
2018-03-29T07:18:05.676Z,6.11
2018-03-29T07:19:05.682Z,6.11
2018-03-29T07:20:05.665Z,6.14
2018-03-29T07:21:05.624Z,6.12
2018-03-29T07:22:05.604Z,6.18
2018-03-29T07:23:05.585Z,6.19
2018-03-29T07:24:05.590Z,6.28
2018-03-29T07:25:05.553Z,6.25
2018-03-29T07:26:05.546Z,6.28
2018-03-29T07:27:05.512Z,6.38
2018-03-29T07:28:05.489Z,6.44
2018-03-29T07:29:05.470Z,6.48
2018-03-29T07:30:05.450Z,6.43
2018-03-29T07:31:05.443Z,6.48
2018-03-29T07:32:05.454Z,6.41
2018-03-29T07:33:05.402Z,6.54
2018-03-29T07:34:05.384Z,6.51
2018-03-29T07:35:05.368Z,6.48
2018-03-29T07:36:05.362Z,6.48
2018-03-29T07:37:05.326Z,6.51
2018-03-29T07:38:05.319Z,6.56
2018-03-29T07:39:05.284Z,6.54
2018-03-29T07:40:05.276Z,6.52
2018-03-29T07:41:05.244Z,6.48
2018-03-29T07:42:05.231Z,6.61
2018-03-29T07:43:05.224Z,6.73
2018-03-29T07:44:05.194Z,6.73
2018-03-29T07:45:05.175Z,6.69
2018-03-29T07:46:05.155Z,6.66
2018-03-29T07:47:05.163Z,6.58
2018-03-29T07:48:05.119Z,6.64
2018-03-29T07:49:05.120Z,6.69
2018-03-29T07:50:05.085Z,6.69
2018-03-29T07:51:05.060Z,6.70
2018-03-29T07:52:05.048Z,6.80
2018-03-29T07:53:05.030Z,6.79
2018-03-29T07:54:05.043Z,6.81
2018-03-29T07:55:05.000Z,6.84
2018-03-29T07:56:04.975Z,6.71
2018-03-29T07:57:04.952Z,6.69
2018-03-29T07:58:04.948Z,6.77
2018-03-29T07:59:04.963Z,6.77
2018-03-29T08:00:04.895Z,6.88
2018-03-29T08:01:25.889Z,6.91
2018-03-29T08:02:04.867Z,6.91
2018-03-29T08:03:04.844Z,6.89
2018-03-29T08:04:04.829Z,6.94
2018-03-29T08:05:04.825Z,6.95
2018-03-29T08:06:04.805Z,6.91
2018-03-29T08:07:04.774Z,6.89
2018-03-29T08:08:04.752Z,6.77
2018-03-29T08:09:04.741Z,6.77
2018-03-29T08:10:04.732Z,6.74
2018-03-29T08:11:04.701Z,6.73
2018-03-29T08:12:04.698Z,6.74
2018-03-29T08:13:04.663Z,6.69
2018-03-29T08:14:04.696Z,6.74
2018-03-29T08:15:04.630Z,6.74
2018-03-29T08:16:04.608Z,6.73
2018-03-29T08:17:04.614Z,6.79
2018-03-29T08:18:04.575Z,6.76
2018-03-29T08:19:04.554Z,6.74
2018-03-29T08:20:04.536Z,6.71
2018-03-29T08:21:04.516Z,6.79
2018-03-29T08:22:04.520Z,6.91
2018-03-29T08:23:04.484Z,6.95
2018-03-29T08:24:04.462Z,6.88
2018-03-29T08:25:04.445Z,6.89
2018-03-29T08:26:04.427Z,7.02
2018-03-29T08:27:04.410Z,6.95
2018-03-29T08:28:04.407Z,7.02
2018-03-29T08:29:04.371Z,7.07
2018-03-29T08:30:04.356Z,7.12
2018-03-29T08:31:04.336Z,7.12
2018-03-29T08:32:04.319Z,7.10
2018-03-29T08:33:04.339Z,7.24
2018-03-29T08:34:04.301Z,7.23
2018-03-29T08:35:04.264Z,7.31
2018-03-29T08:36:04.265Z,7.21
2018-03-29T08:37:04.227Z,7.25
2018-03-29T08:38:04.210Z,7.25
2018-03-29T08:39:04.195Z,7.20
2018-03-29T08:40:04.192Z,7.23
2018-03-29T08:41:04.157Z,7.13
2018-03-29T08:42:04.140Z,7.17
2018-03-29T08:43:04.120Z,7.21
2018-03-29T08:44:04.105Z,7.16
2018-03-29T08:45:04.099Z,7.17
2018-03-29T08:46:04.071Z,7.27
2018-03-29T08:47:04.047Z,7.27
2018-03-29T08:48:04.055Z,7.42
2018-03-29T08:49:04.017Z,7.37
2018-03-29T08:50:25.008Z,7.49
2018-03-29T08:51:03.980Z,7.55
2018-03-29T08:52:03.958Z,7.61
2018-03-29T08:53:03.945Z,7.52
2018-03-29T08:54:03.926Z,7.50
2018-03-29T08:55:03.928Z,7.50
2018-03-29T08:56:03.892Z,7.52
2018-03-29T08:57:03.873Z,7.53
2018-03-29T08:58:03.859Z,7.58
2018-03-29T08:59:03.839Z,7.55
2018-03-29T09:00:03.820Z,7.58
2018-03-29T09:01:03.817Z,7.57
2018-03-29T09:02:03.785Z,7.64
2018-03-29T09:03:03.775Z,7.64
2018-03-29T09:04:03.756Z,7.86
2018-03-29T09:05:03.729Z,8.01
2018-03-29T09:06:03.736Z,7.97
2018-03-29T09:07:03.696Z,8.19
2018-03-29T09:08:03.680Z,8.38
2018-03-29T09:09:03.663Z,8.52
2018-03-29T09:10:03.647Z,8.41
2018-03-29T09:11:03.637Z,8.28
2018-03-29T09:12:03.625Z,8.22
2018-03-29T09:13:03.593Z,8.20
2018-03-29T09:14:03.594Z,8.44
2018-03-29T09:15:03.565Z,8.76
2018-03-29T09:16:03.543Z,9.20
2018-03-29T09:17:04.475Z,9.08
2018-03-29T09:18:03.587Z,8.89
2018-03-29T09:19:03.514Z,8.76
2018-03-29T09:20:03.522Z,9.20
2018-03-29T09:21:03.484Z,9.29
2018-03-29T09:22:03.438Z,8.87
2018-03-29T09:23:03.435Z,8.80
2018-03-29T09:24:03.411Z,8.80
2018-03-29T09:25:03.432Z,8.71
2018-03-29T09:26:03.432Z,8.70
2018-03-29T09:27:03.361Z,8.80
2018-03-29T09:28:03.349Z,8.81
2018-03-29T09:29:03.362Z,8.96
2018-03-29T09:30:03.317Z,9.01
2018-03-29T09:31:03.318Z,8.83
2018-03-29T09:32:03.290Z,8.76
2018-03-29T09:33:03.268Z,8.89
2018-03-29T09:34:03.251Z,9.39
2018-03-29T09:35:03.239Z,9.72
2018-03-29T09:36:03.241Z,9.65
2018-03-29T09:37:03.217Z,9.48
2018-03-29T09:38:03.205Z,9.42
2018-03-29T09:39:03.177Z,9.32
2018-03-29T09:40:03.160Z,9.38
2018-03-29T09:41:03.146Z,9.39
2018-03-29T09:42:03.139Z,9.38
2018-03-29T09:43:03.119Z,9.31
2018-03-29T09:44:03.091Z,9.21
2018-03-29T09:45:03.107Z,9.21
2018-03-29T09:46:11.251Z,9.31
2018-03-29T09:47:03.041Z,9.32
2018-03-29T09:48:11.574Z,9.17
2018-03-29T09:49:03.031Z,8.99
2018-03-29T09:50:03.058Z,8.87
2018-03-29T09:51:03.000Z,8.84
2018-03-29T09:52:02.956Z,8.76
2018-03-29T09:53:02.967Z,8.70
2018-03-29T09:54:02.950Z,8.80
2018-03-29T09:55:02.911Z,8.81
2018-03-29T09:56:02.887Z,8.73
2018-03-29T09:57:02.930Z,8.65
2018-03-29T09:58:02.924Z,8.41
2018-03-29T09:59:02.858Z,8.40
2018-03-29T10:00:02.846Z,8.26
2018-03-29T10:01:02.814Z,8.20
2018-03-29T10:02:02.845Z,8.25
2018-03-29T10:03:02.783Z,8.41
2018-03-29T10:04:02.815Z,8.41
2018-03-29T10:05:02.752Z,8.19
2018-03-29T10:06:02.747Z,8.19
2018-03-29T10:07:02.758Z,8.16
2018-03-29T10:08:02.720Z,8.19
2018-03-29T10:09:02.725Z,8.26
2018-03-29T10:10:02.692Z,8.33
2018-03-29T10:11:02.699Z,8.36
2018-03-29T10:12:02.652Z,8.37
2018-03-29T10:13:02.640Z,8.45
2018-03-29T10:14:02.645Z,8.43
2018-03-29T10:15:02.605Z,8.37
2018-03-29T10:16:02.567Z,8.40
2018-03-29T10:17:02.573Z,8.36
2018-03-29T10:18:02.546Z,8.34
2018-03-29T10:19:02.542Z,8.47
2018-03-29T10:20:02.519Z,9.04
2018-03-29T10:21:02.479Z,8.91
2018-03-29T10:22:02.483Z,8.84
2018-03-29T10:23:02.443Z,8.83
2018-03-29T10:24:02.447Z,8.94
2018-03-29T10:25:02.454Z,9.11
2018-03-29T10:26:02.459Z,9.29
2018-03-29T10:27:02.408Z,9.28
2018-03-29T10:28:02.360Z,9.39
2018-03-29T10:29:02.347Z,9.47
2018-03-29T10:30:02.340Z,9.43
2018-03-29T10:31:02.328Z,9.48
2018-03-29T10:32:02.322Z,9.71
2018-03-29T10:33:02.314Z,9.87
2018-03-29T10:34:02.267Z,10.45
2018-03-29T10:35:02.282Z,10.34
2018-03-29T10:36:02.224Z,10.02
2018-03-29T10:37:02.238Z,9.90
2018-03-29T10:38:02.202Z,9.86
2018-03-29T10:39:02.182Z,10.74
2018-03-29T10:40:02.193Z,11.32
2018-03-29T10:41:02.193Z,11.15
2018-03-29T10:42:02.193Z,11.25
2018-03-29T10:43:02.156Z,11.57
2018-03-29T10:44:02.126Z,11.43
2018-03-29T10:45:02.129Z,10.88
2018-03-29T10:46:02.083Z,11.58
2018-03-29T10:47:02.074Z,12.04
2018-03-29T10:48:02.079Z,12.38
2018-03-29T10:49:02.058Z,13.15
2018-03-29T10:50:02.036Z,13.69
2018-03-29T10:51:02.014Z,13.29
2018-03-29T10:52:02.017Z,12.45
2018-03-29T10:53:02.011Z,11.43
2018-03-29T10:54:01.971Z,11.28
2018-03-29T10:55:01.971Z,10.96
2018-03-29T10:56:01.992Z,10.59
2018-03-29T10:57:01.927Z,10.45
2018-03-29T10:58:01.957Z,10.29
2018-03-29T10:59:01.907Z,10.01
2018-03-29T11:00:01.941Z,9.89
2018-03-29T11:01:01.876Z,9.79
2018-03-29T11:02:01.864Z,9.69
2018-03-29T11:03:01.859Z,9.65
2018-03-29T11:04:01.835Z,9.43
2018-03-29T11:05:01.843Z,9.35
2018-03-29T11:06:01.816Z,9.21
2018-03-29T11:07:01.805Z,9.14
2018-03-29T11:08:01.787Z,8.87
2018-03-29T11:09:01.758Z,8.84
2018-03-29T11:10:01.772Z,8.53
2018-03-29T11:11:01.750Z,8.56
2018-03-29T11:12:01.738Z,8.53
2018-03-29T11:13:01.703Z,8.34
2018-03-29T11:14:01.682Z,8.19
2018-03-29T11:15:01.673Z,8.04
2018-03-29T11:16:01.671Z,8.04
2018-03-29T11:17:01.662Z,8.15
2018-03-29T11:18:01.619Z,8.04
2018-03-29T11:19:01.643Z,8.16
2018-03-29T11:20:01.616Z,8.07
2018-03-29T11:21:22.965Z,8.01
2018-03-29T11:22:01.642Z,8.01
2018-03-29T11:23:01.550Z,7.89
2018-03-29T11:24:01.517Z,7.82
2018-03-29T11:25:01.549Z,7.82
2018-03-29T11:26:01.485Z,7.86
2018-03-29T11:27:01.488Z,7.74
2018-03-29T11:28:01.497Z,7.68
2018-03-29T11:29:01.438Z,7.58
2018-03-29T11:30:01.424Z,7.57
2018-03-29T11:31:01.409Z,7.57
2018-03-29T11:32:01.395Z,7.68
2018-03-29T11:33:01.372Z,7.69
2018-03-29T11:34:01.380Z,7.55
2018-03-29T11:35:01.343Z,7.63
2018-03-29T11:36:01.330Z,7.75
2018-03-29T11:37:01.306Z,7.68
2018-03-29T11:38:01.338Z,7.89
2018-03-29T11:39:01.317Z,7.87
2018-03-29T11:40:01.255Z,7.82
2018-03-29T11:41:01.253Z,7.79
2018-03-29T11:42:01.232Z,7.74
2018-03-29T11:43:01.251Z,7.80
2018-03-29T11:44:01.244Z,7.64
2018-03-29T11:45:01.191Z,7.72
2018-03-29T11:46:01.202Z,7.75
2018-03-29T11:47:01.150Z,7.57
2018-03-29T11:48:01.139Z,7.55
2018-03-29T11:49:01.110Z,7.57
2018-03-29T11:50:01.108Z,7.42
2018-03-29T11:51:01.062Z,7.31
2018-03-29T11:52:01.045Z,7.09
2018-03-29T11:53:01.035Z,6.74
2018-03-29T11:54:02.271Z,6.58
2018-03-29T11:55:01.108Z,6.27
2018-03-29T11:56:01.228Z,6.14
2018-03-29T11:57:00.995Z,6.19
2018-03-29T11:58:00.960Z,6.27
2018-03-29T11:59:00.995Z,6.25
2018-03-29T12:00:00.940Z,6.33
2018-03-29T12:01:00.972Z,6.38
2018-03-29T12:02:00.887Z,6.34
2018-03-29T12:03:00.857Z,6.37
2018-03-29T12:04:00.841Z,6.36
2018-03-29T12:05:00.856Z,6.36
2018-03-29T12:06:00.852Z,6.38
2018-03-29T12:07:00.819Z,6.55
2018-03-29T12:08:00.763Z,6.69
2018-03-29T12:09:00.781Z,6.74
2018-03-29T12:10:01.348Z,6.79
2018-03-29T12:11:01.361Z,6.80
2018-03-29T12:12:00.765Z,6.79
2018-03-29T12:13:00.778Z,6.67
2018-03-29T12:14:00.650Z,6.62
2018-03-29T12:15:00.657Z,6.79
2018-03-29T12:16:00.618Z,6.85
2018-03-29T12:17:00.603Z,7.07
2018-03-29T12:18:00.634Z,7.20
2018-03-29T12:19:00.560Z,7.42
2018-03-29T12:20:00.575Z,7.63
2018-03-29T12:21:00.533Z,8.04
2018-03-29T12:22:00.523Z,8.58
2018-03-29T12:23:00.498Z,9.18
2018-03-29T12:24:00.467Z,9.81
2018-03-29T12:25:00.525Z,10.59
2018-03-29T12:26:00.468Z,10.81
2018-03-29T12:27:00.444Z,11.42
2018-03-29T12:28:00.415Z,11.61
2018-03-29T12:29:00.415Z,11.51
2018-03-29T12:30:00.379Z,11.42
2018-03-29T12:31:00.389Z,11.64
2018-03-29T12:32:00.370Z,11.72
2018-03-29T12:33:00.358Z,11.24
2018-03-29T12:34:00.334Z,11.57
2018-03-29T12:35:00.327Z,12.19
2018-03-29T12:36:00.318Z,12.17
2018-03-29T12:37:00.287Z,11.44
2018-03-29T12:38:03.385Z,10.85
2018-03-29T12:39:00.296Z,11.18
2018-03-29T12:40:00.437Z,11.42
2018-03-29T12:41:00.256Z,11.62
2018-03-29T12:42:00.220Z,11.47
2018-03-29T12:43:00.227Z,11.36
2018-03-29T12:44:00.209Z,10.86
2018-03-29T12:45:00.268Z,11.11
2018-03-29T12:46:00.185Z,11.14
2018-03-29T12:47:00.176Z,11.44
2018-03-29T12:48:00.164Z,11.83
2018-03-29T12:49:00.180Z,11.96
2018-03-29T12:50:00.144Z,11.78
2018-03-29T12:51:00.174Z,11.65
2018-03-29T12:52:00.142Z,11.67
2018-03-29T12:53:00.115Z,11.91
2018-03-29T12:54:00.138Z,11.90
2018-03-29T12:55:00.101Z,11.61
2018-03-29T12:56:00.081Z,11.39
2018-03-29T12:57:00.080Z,11.37
2018-03-29T12:58:00.051Z,11.18
2018-03-29T12:59:00.036Z,10.74
2018-03-29T13:00:00.043Z,10.34
2018-03-29T13:01:00.014Z,10.30
2018-03-29T13:02:00.056Z,10.27
2018-03-29T13:03:01.856Z,10.59
2018-03-29T13:03:59.986Z,10.94
2018-03-29T13:04:59.972Z,11.43
2018-03-29T13:06:00.087Z,11.83
2018-03-29T13:06:59.953Z,12.14
2018-03-29T13:07:59.951Z,12.54
2018-03-29T13:08:59.932Z,13.07
2018-03-29T13:09:59.948Z,12.89
2018-03-29T13:10:59.932Z,12.56
2018-03-29T13:11:59.920Z,12.62
2018-03-29T13:12:59.895Z,12.74
2018-03-29T13:13:59.887Z,13.11
2018-03-29T13:14:59.869Z,13.12